Time;durP1;ratioP1;P1;durP2;ratioP2;P2;SDS_P1;SDS_P2;PMS_P1;PMS_P2;Temp;Humidity;BMP_temperature;BMP_pressure;BME280_temperature;BME280_humidity;BME280_pressure;Samples;Min_cycle;Max_cycle;Signal;HPM_P1;HPM_P2
2023/06/24 00:01:02;;;;;;;;;;;;;;;;;;5087374;28;19916;-43
2023/06/24 05:10:45;;;;;;;;;;;;;;;;;;5087366;28;20493;-42
2023/06/24 05:13:11;;;;;;;;;;;;;;;;;;5087850;28;20117;-42
2023/06/24 05:15:37;;;;;;;;;;;;;;;;;;5087750;28;19912;-41
2023/06/24 05:18:03;;;;;;;;;;;;;;;;;;5087561;28;19912;-42
2023/06/24 05:20:29;;;;;;;;;;;;;;;;;;5088086;28;19920;-41
2023/06/24 05:22:55;;;;;;;;;;;;;;;;;;5087701;28;19908;-41
2023/06/24 05:25:21;;;;;;;;;;;;;;;;;;5087558;28;20292;-41
2023/06/24 05:27:46;;;;;;;;;;;;;;;;;;5088051;28;19919;-41
2023/06/24 05:30:14;;;;;;;;;;;;;;;;;;5087547;28;19908;-42
2023/06/24 05:32:39;;;;;;;;;;;;;;;;;;5086118;28;20418;-42
2023/06/24 05:35:05;;;;;;;;;;;;;;;;;;5087659;28;19916;-41
2023/06/24 05:37:31;;;;;;;;;;;;;;;;;;5087218;28;19912;-42
2023/06/24 05:40:01;;;;;;;;;;;;;;;;;;5087122;28;19917;-41
2023/06/24 05:42:26;;;;;;;;;;;;;;;;;;5087440;28;19939;-41
2023/06/24 05:44:52;;;;;;;;;;;;;;;;;;5087193;28;19924;-40
2023/06/24 05:47:18;;;;;;;;;;;;;;;;;;5087637;28;19955;-40
2023/06/24 05:49:44;;;;;;;;;;;;;;;;;;5085667;28;19909;-40
2023/06/24 05:52:10;;;;;;;;;;;;;;;;;;5087560;28;19958;-41
2023/06/24 05:54:36;;;;;;;;;;;;;;;;;;5085994;28;19919;-40
2023/06/24 05:57:05;;;;;;;;;;;;;;;;;;5088469;28;19912;-40
2023/06/24 05:59:31;;;;;;;;;;;;;;;;;;5088424;28;19918;-41
2023/06/24 06:01:57;;;;;;;;;;;;;;;;;;5087212;28;19999;-40
2023/06/24 06:04:23;;;;;;;;;;;;;;;;;;5085061;28;19912;-41
2023/06/24 06:06:49;;;;;;;;;;;;;;;;;;5087635;28;19962;-40
2023/06/24 06:09:15;;;;;;;;;;;;;;;;;;5069186;28;19978;-40
2023/06/24 06:11:41;;;;;;;;;;;;;;;;;;5075116;28;20390;-40
2023/06/24 06:14:07;;;;;;;;;;;;;;;;;;5088366;28;20023;-41
2023/06/24 06:16:33;;;;;;;;;;;;;;;;;;5074244;28;19999;-42
2023/06/24 06:18:59;;;;;;;;;;;;;;;;;;5068071;28;19913;-40
2023/06/24 06:21:25;;;;;;;;;;;;;;;;;;5076500;28;19974;-40
2023/06/24 06:23:52;;;;;;;;;;;;;;;;;;5087347;28;19916;-42
2023/06/24 06:26:18;;;;;;;;;;;;;;;;;;5088827;28;20008;-40
2023/06/24 06:28:44;;;;;;;;;;;;;;;;;;5088287;28;19970;-41
2023/06/24 06:31:10;;;;;;;;;;;;;;;;;;5087034;28;19912;-40
2023/06/24 06:33:36;;;;;;;;;;;;;;;;;;5088671;28;19912;-40
2023/06/24 06:36:02;;;;;;;;;;;;;;;;;;5088451;28;19923;-40
2023/06/24 06:38:28;;;;;;;;;;;;;;;;;;5086421;28;19920;-40
2023/06/24 06:40:54;;;;;;;;;;;;;;;;;;5088029;28;19912;-40
2023/06/24 06:43:21;;;;;;;;;;;;;;;;;;5091622;28;19939;-41
2023/06/24 06:45:47;;;;;;;;;;;;;;;;;;5091062;28;20394;-40
2023/06/24 06:48:13;;;;;;;;;;;;;;;;;;5089167;28;19912;-40
2023/06/24 06:50:39;;;;;;;;;;;;;;;;;;5091179;28;19955;-40
2023/06/24 06:53:05;;;;;;;;;;;;;;;;;;5090926;28;19954;-40
2023/06/24 06:55:30;;;;;;;;;;;;;;;;;;5092179;28;19963;-40
2023/06/24 06:57:56;;;;;;;;;;;;;;;;;;5087158;28;19912;-40
2023/06/24 07:00:22;;;;;;;;;;;;;;;;;;5089853;28;20386;-40
2023/06/24 07:02:48;;;;;;;;;;;;;;;;;;5072917;28;20292;-40
2023/06/24 07:05:15;;;;;;;;;;;;;;;;;;5077316;28;19944;-40
2023/06/24 07:07:45;;;;;;;;;;;;;;;;;;5090628;28;19958;-39
2023/06/24 07:10:10;;;;;;;;;;;;;;;;;;5098493;28;19908;-40
2023/06/24 07:12:36;;;;;;;;;;;;;;;;;;5092706;28;19965;-41
2023/06/24 07:15:02;;;;;;;;;;;;;;;;;;5088181;28;19924;-41
2023/06/24 07:17:28;;;;;;;;;;;;;;;;;;5090174;28;19912;-40
2023/06/24 07:19:54;;;;;;;;;;;;;;;;;;5088718;28;19904;-40
2023/06/24 07:22:20;;;;;;;;;;;;;;;;;;5089035;28;20312;-40
2023/06/24 07:24:46;;;;;;;;;;;;;;;;;;5087833;28;19912;-41
2023/06/24 07:27:12;;;;;;;;;;;;;;;;;;5089054;28;20340;-40
2023/06/24 07:29:38;;;;;;;;;;;;;;;;;;5088553;28;19919;-40
2023/06/24 07:32:03;;;;;;;;;;;;;;;;;;5087210;28;20303;-40
2023/06/24 07:34:30;;;;;;;;;;;;;;;;;;5085840;28;21117;-40
2023/06/24 07:36:57;;;;;;;;;;;;;;;;;;5088127;28;19919;-41
2023/06/24 07:39:22;;;;;;;;;;;;;;;;;;5088480;28;19919;-40
2023/06/24 07:41:48;;;;;;;;;;;;;;;;;;5087776;28;19916;-40
2023/06/24 07:44:14;;;;;;;;;;;;;;;;;;5088908;28;20406;-40
2023/06/24 07:46:40;;;;;;;;;;;;;;;;;;5086425;28;19935;-41
2023/06/24 07:49:06;;;;;;;;;;;;;;;;;;5088627;28;19947;-41
2023/06/24 07:51:34;;;;;;;;;;;;;;;;;;5088861;28;20003;-41
2023/06/24 07:54:00;;;;;;;;;;;;;;;;;;5087766;28;19908;-40
2023/06/24 07:56:26;;;;;;;;;;;;;;;;;;5088584;28;19927;-41
2023/06/24 07:58:52;;;;;;;;;;;;;;;;;;5068878;28;19923;-41
2023/06/24 08:01:18;;;;;;;;;;;;;;;;;;5075383;28;19920;-41
2023/06/24 08:03:44;;;;;;;;;;;;;;;;;;5088571;28;19908;-41
2023/06/24 08:06:10;;;;;;;;;;;;;;;;;;5088365;28;19936;-41
2023/06/24 08:08:36;;;;;;;;;;;;;;;;;;5088258;28;19970;-41
2023/06/24 08:11:02;;;;;;;;;;;;;;;;;;5088350;28;19905;-41
2023/06/24 08:13:28;;;;;;;;;;;;;;;;;;5088229;28;19920;-41
2023/06/24 08:15:54;;;;;;;;;;;;;;;;;;5087171;28;20499;-40
2023/06/24 08:18:20;;;;;;;;;;;;;;;;;;5088048;28;19912;-41
2023/06/24 08:20:46;;;;;;;;;;;;;;;;;;5088042;28;19904;-41
2023/06/24 08:23:11;;;;;;;;;;;;;;;;;;5088110;28;20022;-40
2023/06/24 08:25:38;;;;;;;;;;;;;;;;;;5086050;28;19916;-41
2023/06/24 08:28:05;;;;;;;;;;;;;;;;;;5086686;28;20219;-43
2023/06/24 08:30:32;;;;;;;;;;;;;;;;;;5087454;28;19959;-40
2023/06/24 08:32:58;;;;;;;;;;;;;;;;;;5087027;28;19916;-43
2023/06/24 08:35:24;;;;;;;;;;;;;;;;;;5081634;28;20322;-40
2023/06/24 08:37:50;;;;;;;;;;;;;;;;;;5084994;28;20463;-42
2023/06/24 08:40:16;;;;;;;;;;;;;;;;;;5085996;28;19915;-41
2023/06/24 08:42:43;;;;;;;;;;;;;;;;;;5085915;28;20395;-41
2023/06/24 08:45:10;;;;;;;;;;;;;;;;;;5082807;28;19916;-41
2023/06/24 08:47:36;;;;;;;;;;;;;;;;;;5083124;28;20003;-41
2023/06/24 08:50:03;;;;;;;;;;;;;;;;;;5085492;28;19994;-41
2023/06/24 08:52:29;;;;;;;;;;;;;;;;;;5086287;28;19969;-41
2023/06/24 08:54:55;;;;;;;;;;;;;;;;;;5085991;28;19912;-41
2023/06/24 08:57:21;;;;;;;;;;;;;;;;;;5087154;28;19951;-41
2023/06/24 08:59:47;;;;;;;;;;;;;;;;;;5087165;28;19918;-40
2023/06/24 09:02:13;;;;;;;;;;;;;;;;;;5086977;28;19916;-41
2023/06/24 09:04:39;;;;;;;;;;;;;;;;;;5087129;28;19908;-41
2023/06/24 09:07:05;;;;;;;;;;;;;;;;;;5078857;28;19915;-41
2023/06/24 09:09:31;;;;;;;;;;;;;;;;;;5086986;28;19912;-41
2023/06/24 09:11:57;;;;;;;;;;;;;;;;;;5086096;28;20301;-41
2023/06/24 09:14:23;;;;;;;;;;;;;;;;;;5085983;28;19989;-42
2023/06/24 09:16:49;;;;;;;;;;;;;;;;;;5086900;28;20404;-41
2023/06/24 09:19:17;;;;;;;;;;;;;;;;;;5084244;28;19920;-41
2023/06/24 09:21:44;;;;;;;;;;;;;;;;;;5085208;28;19916;-40
2023/06/24 09:24:10;;;;;;;;;;;;;;;;;;5086804;28;20028;-41
2023/06/24 09:26:36;;;;;;;;;;;;;;;;;;5086749;28;19909;-40
2023/06/24 09:29:02;;;;;;;;;;;;;;;;;;5086156;28;19946;-42
2023/06/24 09:31:28;;;;;;;;;;;;;;;;;;5085945;28;20014;-41
2023/06/24 09:33:54;;;;;;;;;;;;;;;;;;5087016;28;20355;-41
2023/06/24 09:36:20;;;;;;;;;;;;;;;;;;5086890;28;19919;-42
2023/06/24 09:38:47;;;;;;;;;;;;;;;;;;5086429;28;19961;-41
2023/06/24 09:41:13;;;;;;;;;;;;;;;;;;5087279;28;19995;-41
2023/06/24 09:43:39;;;;;;;;;;;;;;;;;;5087412;28;19912;-41
2023/06/24 09:46:05;;;;;;;;;;;;;;;;;;5086955;28;19925;-41
2023/06/24 09:48:31;;;;;;;;;;;;;;;;;;5085817;28;20006;-42
2023/06/24 09:50:57;;;;;;;;;;;;;;;;;;5085566;28;20327;-41
2023/06/24 09:53:23;;;;;;;;;;;;;;;;;;5086913;28;19930;-41
2023/06/24 09:55:49;;;;;;;;;;;;;;;;;;5086406;28;19955;-40
2023/06/24 09:58:15;;;;;;;;;;;;;;;;;;5085674;28;19999;-41
2023/06/24 10:00:41;;;;;;;;;;;;;;;;;;5087006;28;19934;-42
2023/06/24 10:03:07;;;;;;;;;;;;;;;;;;5086829;28;20027;-43
2023/06/24 10:05:33;;;;;;;;;;;;;;;;;;5086168;28;19923;-42
2023/06/24 10:07:59;;;;;;;;;;;;;;;;;;5085140;28;19986;-42
2023/06/24 10:10:25;;;;;;;;;;;;;;;;;;5085589;28;19994;-40
2023/06/24 10:12:51;;;;;;;;;;;;;;;;;;5085042;28;20003;-42
2023/06/24 10:15:17;;;;;;;;;;;;;;;;;;5086633;28;19912;-43
2023/06/24 10:17:43;;;;;;;;;;;;;;;;;;5088592;28;19916;-40
2023/06/24 10:20:09;;;;;;;;;;;;;;;;;;5090528;28;19923;-41
2023/06/24 10:22:36;;;;;;;;;;;;;;;;;;5090438;28;19970;-40
2023/06/24 10:25:02;;;;;;;;;;;;;;;;;;5089768;28;19916;-41
2023/06/24 10:27:32;;;;;;;;;;;;;;;;;;5089048;28;19922;-41
2023/06/24 10:29:58;;;;;;;;;;;;;;;;;;5089826;28;19916;-40
2023/06/24 10:32:24;;;;;;;;;;;;;;;;;;5090351;28;19994;-42
2023/06/24 10:34:50;;;;;;;;;;;;;;;;;;5090033;28;20011;-41
2023/06/24 10:37:16;;;;;;;;;;;;;;;;;;5089749;28;19912;-41
2023/06/24 10:39:42;;;;;;;;;;;;;;;;;;5089711;28;19912;-41
2023/06/24 10:42:07;;;;;;;;;;;;;;;;;;5089637;28;19909;-42
2023/06/24 10:44:33;;;;;;;;;;;;;;;;;;5089725;28;19923;-43
2023/06/24 10:46:59;;;;;;;;;;;;;;;;;;5090144;28;19908;-41
2023/06/24 10:49:25;;;;;;;;;;;;;;;;;;5089565;28;19951;-41
2023/06/24 10:51:51;;;;;;;;;;;;;;;;;;5088530;28;19916;-40
2023/06/24 10:54:17;;;;;;;;;;;;;;;;;;5090022;28;19908;-41
2023/06/24 10:56:44;;;;;;;;;;;;;;;;;;5089918;28;19983;-40
2023/06/24 10:59:11;;;;;;;;;;;;;;;;;;5090199;28;19954;-41
2023/06/24 11:01:37;;;;;;;;;;;;;;;;;;5089202;28;19919;-41
2023/06/24 11:04:02;;;;;;;;;;;;;;;;;;5089029;28;19920;-42
2023/06/24 11:06:28;;;;;;;;;;;;;;;;;;5088989;28;19962;-40
2023/06/24 11:08:54;;;;;;;;;;;;;;;;;;5090995;28;19939;-41
2023/06/24 11:11:23;;;;;;;;;;;;;;;;;;5105523;28;19912;-40
2023/06/24 11:13:49;;;;;;;;;;;;;;;;;;5088482;28;19920;-41
2023/06/24 11:16:15;;;;;;;;;;;;;;;;;;5088277;28;19919;-41
2023/06/24 11:18:41;;;;;;;;;;;;;;;;;;5086866;28;19916;-40
2023/06/24 11:21:07;;;;;;;;;;;;;;;;;;5089280;28;19909;-40
2023/06/24 11:23:33;;;;;;;;;;;;;;;;;;5088425;28;19951;-41
2023/06/24 11:26:00;;;;;;;;;;;;;;;;;;5089310;28;19916;-43
2023/06/24 11:28:27;;;;;;;;;;;;;;;;;;5089404;28;19931;-42
2023/06/24 11:30:53;;;;;;;;;;;;;;;;;;5089072;28;20007;-42
2023/06/24 11:33:19;;;;;;;;;;;;;;;;;;5089029;28;20011;-41
2023/06/24 11:35:45;;;;;;;;;;;;;;;;;;5088960;28;19934;-43
2023/06/24 11:38:11;;;;;;;;;;;;;;;;;;5088002;28;19912;-41
2023/06/24 11:40:37;;;;;;;;;;;;;;;;;;5087607;28;19912;-41
2023/06/24 11:43:03;;;;;;;;;;;;;;;;;;5088822;28;19915;-43
2023/06/24 11:45:29;;;;;;;;;;;;;;;;;;5088958;28;20448;-42
2023/06/24 11:47:55;;;;;;;;;;;;;;;;;;5089515;28;19908;-41
2023/06/24 11:50:21;;;;;;;;;;;;;;;;;;5087834;28;20133;-42
2023/06/24 11:52:51;;;;;;;;;;;;;;;;;;5088741;28;19912;-42
2023/06/24 11:55:18;;;;;;;;;;;;;;;;;;5088421;28;19912;-41
2023/06/24 11:57:43;;;;;;;;;;;;;;;;;;5088947;28;19915;-43
2023/06/24 12:00:09;;;;;;;;;;;;;;;;;;5084846;28;19916;-43
2023/06/24 12:02:36;;;;;;;;;;;;;;;;;;5084148;28;19920;-43
2023/06/24 12:05:02;;;;;;;;;;;;;;;;;;5084123;28;19912;-42
2023/06/24 12:07:28;;;;;;;;;;;;;;;;;;5088166;28;19912;-42
2023/06/24 12:09:55;;;;;;;;;;;;;;;;;;5088573;28;19923;-42
2023/06/24 12:12:20;;;;;;;;;;;;;;;;;;5086922;28;19916;-44
2023/06/24 12:14:46;;;;;;;;;;;;;;;;;;5088348;28;19961;-43
2023/06/24 12:17:12;;;;;;;;;;;;;;;;;;5087559;28;19916;-43
2023/06/24 12:19:38;;;;;;;;;;;;;;;;;;5086537;28;19955;-44
2023/06/24 12:22:04;;;;;;;;;;;;;;;;;;5088019;28;19912;-41
2023/06/24 12:24:30;;;;;;;;;;;;;;;;;;5087778;28;19912;-41
2023/06/24 12:26:56;;;;;;;;;;;;;;;;;;5088238;28;19915;-43
2023/06/24 12:29:22;;;;;;;;;;;;;;;;;;5087426;28;19913;-43
2023/06/24 12:31:48;;;;;;;;;;;;;;;;;;5086794;28;20130;-44
2023/06/24 12:34:14;;;;;;;;;;;;;;;;;;5087741;28;19920;-42
2023/06/24 12:36:40;;;;;;;;;;;;;;;;;;5087685;28;19963;-42
2023/06/24 12:39:06;;;;;;;;;;;;;;;;;;5086047;28;19918;-43
2023/06/24 12:41:33;;;;;;;;;;;;;;;;;;5087495;28;19961;-42
2023/06/24 12:44:00;;;;;;;;;;;;;;;;;;5086499;28;19927;-43
2023/06/24 12:46:26;;;;;;;;;;;;;;;;;;5086950;28;20460;-41
2023/06/24 12:48:52;;;;;;;;;;;;;;;;;;5088271;28;19999;-43
2023/06/24 12:51:18;;;;;;;;;;;;;;;;;;5087724;28;19918;-44
2023/06/24 12:53:43;;;;;;;;;;;;;;;;;;5085840;28;20006;-42
2023/06/24 12:56:09;;;;;;;;;;;;;;;;;;5087442;28;19947;-43
2023/06/24 12:58:35;;;;;;;;;;;;;;;;;;5087423;28;19912;-42
2023/06/24 13:01:01;;;;;;;;;;;;;;;;;;5085157;28;19959;-43
2023/06/24 13:03:27;;;;;;;;;;;;;;;;;;5084789;28;19955;-42
2023/06/24 13:05:53;;;;;;;;;;;;;;;;;;5084934;28;19916;-42
2023/06/24 13:08:19;;;;;;;;;;;;;;;;;;5083816;28;20510;-41
2023/06/24 13:10:45;;;;;;;;;;;;;;;;;;5085907;28;19958;-43
2023/06/24 13:13:11;;;;;;;;;;;;;;;;;;5085355;28;19923;-43
2023/06/24 13:15:37;;;;;;;;;;;;;;;;;;5083024;28;19916;-43
2023/06/24 13:18:03;;;;;;;;;;;;;;;;;;5085331;28;20166;-42
2023/06/24 13:20:29;;;;;;;;;;;;;;;;;;5086145;28;20357;-43
2023/06/24 13:22:55;;;;;;;;;;;;;;;;;;5086636;28;20536;-42
2023/06/24 13:25:21;;;;;;;;;;;;;;;;;;5083761;28;20051;-41
2023/06/24 13:27:47;;;;;;;;;;;;;;;;;;5085505;28;19920;-42
2023/06/24 13:30:15;;;;;;;;;;;;;;;;;;5079950;28;20078;-42
2023/06/24 13:32:41;;;;;;;;;;;;;;;;;;5087419;28;20037;-42
2023/06/24 13:35:07;;;;;;;;;;;;;;;;;;5087235;28;20006;-42
2023/06/24 13:37:32;;;;;;;;;;;;;;;;;;5085761;28;19912;-45
2023/06/24 13:39:58;;;;;;;;;;;;;;;;;;5086299;28;19920;-42
2023/06/24 13:42:25;;;;;;;;;;;;;;;;;;5087871;28;19909;-41
2023/06/24 13:44:51;;;;;;;;;;;;;;;;;;5087750;28;19908;-41
2023/06/24 13:47:17;;;;;;;;;;;;;;;;;;5086162;28;19935;-41
2023/06/24 13:49:43;;;;;;;;;;;;;;;;;;5086745;28;19916;-42
2023/06/24 13:52:09;;;;;;;;;;;;;;;;;;5085079;28;19916;-42
2023/06/24 13:54:35;;;;;;;;;;;;;;;;;;5087051;28;20052;-41
2023/06/24 13:57:01;;;;;;;;;;;;;;;;;;5086068;28;19961;-42
2023/06/24 13:59:27;;;;;;;;;;;;;;;;;;5086711;28;19912;-42
2023/06/24 14:01:53;;;;;;;;;;;;;;;;;;5087500;28;19939;-41
2023/06/24 14:04:19;;;;;;;;;;;;;;;;;;5086318;28;19920;-42
2023/06/24 14:06:46;;;;;;;;;;;;;;;;;;5086060;28;19912;-43
2023/06/24 14:09:12;;;;;;;;;;;;;;;;;;5084847;28;19912;-46
2023/06/24 14:11:38;;;;;;;;;;;;;;;;;;5086904;28;20544;-42
2023/06/24 14:14:04;;;;;;;;;;;;;;;;;;5086725;28;19939;-42
2023/06/24 14:16:30;;;;;;;;;;;;;;;;;;5082221;28;20386;-43
2023/06/24 14:18:56;;;;;;;;;;;;;;;;;;5086691;28;19943;-42
2023/06/24 14:21:22;;;;;;;;;;;;;;;;;;5084826;28;20265;-41
2023/06/24 14:23:48;;;;;;;;;;;;;;;;;;5083280;28;19916;-43
2023/06/24 14:26:14;;;;;;;;;;;;;;;;;;5086619;28;19919;-42
2023/06/24 14:28:40;;;;;;;;;;;;;;;;;;5086795;28;19912;-45
2023/06/24 14:31:06;;;;;;;;;;;;;;;;;;5086827;28;19912;-43
2023/06/24 14:33:31;;;;;;;;;;;;;;;;;;5085613;28;19946;-43
2023/06/24 14:35:57;;;;;;;;;;;;;;;;;;5085083;28;19935;-42
2023/06/24 14:38:24;;;;;;;;;;;;;;;;;;5085718;28;19993;-42
2023/06/24 14:40:50;;;;;;;;;;;;;;;;;;5084850;28;19916;-44
2023/06/24 14:43:16;;;;;;;;;;;;;;;;;;5085188;28;19919;-44
2023/06/24 14:45:42;;;;;;;;;;;;;;;;;;5085118;28;19948;-43
2023/06/24 14:48:08;;;;;;;;;;;;;;;;;;5085245;28;19919;-43
2023/06/24 14:50:35;;;;;;;;;;;;;;;;;;5085131;28;19912;-43
2023/06/24 14:53:01;;;;;;;;;;;;;;;;;;5084859;28;19920;-43
2023/06/24 14:55:28;;;;;;;;;;;;;;;;;;5085209;28;19926;-43
2023/06/24 14:57:53;;;;;;;;;;;;;;;;;;5085129;28;19962;-44
2023/06/24 15:00:19;;;;;;;;;;;;;;;;;;5084997;28;19951;-44
2023/06/24 15:02:45;;;;;;;;;;;;;;;;;;5085318;28;19966;-43
2023/06/24 15:05:11;;;;;;;;;;;;;;;;;;5088709;28;19919;-46
2023/06/24 15:07:38;;;;;;;;;;;;;;;;;;5088668;28;19914;-44
2023/06/24 15:10:04;;;;;;;;;;;;;;;;;;5088594;28;20006;-43
2023/06/24 15:12:29;;;;;;;;;;;;;;;;;;5088348;28;20040;-46
2023/06/24 15:14:55;;;;;;;;;;;;;;;;;;5087622;28;19916;-42
2023/06/24 15:17:21;;;;;;;;;;;;;;;;;;5088863;28;19912;-42
2023/06/24 15:19:47;;;;;;;;;;;;;;;;;;5088262;28;19950;-43
2023/06/24 15:22:13;;;;;;;;;;;;;;;;;;5088303;28;20020;-43
2023/06/24 15:24:39;;;;;;;;;;;;;;;;;;5087983;28;20457;-44
2023/06/24 15:27:05;;;;;;;;;;;;;;;;;;5086740;28;19908;-44
2023/06/24 15:29:31;;;;;;;;;;;;;;;;;;5086906;28;19912;-43
2023/06/24 15:31:57;;;;;;;;;;;;;;;;;;5086878;28;19962;-46
2023/06/24 15:34:23;;;;;;;;;;;;;;;;;;5088846;28;19951;-43
2023/06/24 15:36:48;;;;;;;;;;;;;;;;;;5088076;28;19924;-43
2023/06/24 15:39:14;;;;;;;;;;;;;;;;;;5087821;28;19912;-43
2023/06/24 15:41:40;;;;;;;;;;;;;;;;;;5087893;28;19919;-43
2023/06/24 15:44:06;;;;;;;;;;;;;;;;;;5087984;28;20019;-43
2023/06/24 15:46:32;;;;;;;;;;;;;;;;;;5087429;28;19920;-46
2023/06/24 15:48:58;;;;;;;;;;;;;;;;;;5088036;28;20489;-46
2023/06/24 15:51:25;;;;;;;;;;;;;;;;;;5088428;28;19919;-43
2023/06/24 15:53:51;;;;;;;;;;;;;;;;;;5087690;28;20007;-41
2023/06/24 15:56:17;;;;;;;;;;;;;;;;;;5087497;28;20007;-42
2023/06/24 15:58:43;;;;;;;;;;;;;;;;;;5087568;28;20452;-42
2023/06/24 16:01:09;;;;;;;;;;;;;;;;;;5087503;28;19908;-42
2023/06/24 16:03:35;;;;;;;;;;;;;;;;;;5087629;28;20430;-43
2023/06/24 16:06:01;;;;;;;;;;;;;;;;;;5087543;28;19919;-43
2023/06/24 16:08:27;;;;;;;;;;;;;;;;;;5086519;28;19916;-44
2023/06/24 16:10:53;;;;;;;;;;;;;;;;;;5087236;28;19934;-42
2023/06/24 16:13:19;;;;;;;;;;;;;;;;;;5088668;28;20015;-44
2023/06/24 16:15:45;;;;;;;;;;;;;;;;;;5087787;28;20420;-43
2023/06/24 16:18:11;;;;;;;;;;;;;;;;;;5088110;28;19912;-43
2023/06/24 16:20:37;;;;;;;;;;;;;;;;;;5088601;28;19912;-42
2023/06/24 16:23:04;;;;;;;;;;;;;;;;;;5086769;28;20083;-41
2023/06/24 16:25:31;;;;;;;;;;;;;;;;;;5088520;28;19916;-42
2023/06/24 16:27:57;;;;;;;;;;;;;;;;;;5087100;28;19916;-42
2023/06/24 16:30:23;;;;;;;;;;;;;;;;;;5087482;28;20422;-44
2023/06/24 16:32:49;;;;;;;;;;;;;;;;;;5087670;28;20039;-42
2023/06/24 16:35:15;;;;;;;;;;;;;;;;;;5088287;28;20014;-44
2023/06/24 16:37:41;;;;;;;;;;;;;;;;;;5088009;28;19912;-42
2023/06/24 16:40:07;;;;;;;;;;;;;;;;;;5087100;28;19916;-43
2023/06/24 16:42:33;;;;;;;;;;;;;;;;;;5084461;28;20296;-43
2023/06/24 16:44:59;;;;;;;;;;;;;;;;;;5077438;28;19926;-44
2023/06/24 16:47:26;;;;;;;;;;;;;;;;;;5084851;28;19912;-42
2023/06/24 16:49:52;;;;;;;;;;;;;;;;;;5084712;28;19961;-43
2023/06/24 16:52:18;;;;;;;;;;;;;;;;;;5076961;28;19924;-47
2023/06/24 16:54:45;;;;;;;;;;;;;;;;;;5082861;28;20362;-46
2023/06/24 16:57:11;;;;;;;;;;;;;;;;;;5084797;28;19916;-43
2023/06/24 16:59:38;;;;;;;;;;;;;;;;;;5083759;28;19914;-42
2023/06/24 17:02:04;;;;;;;;;;;;;;;;;;5073288;28;20385;-45
2023/06/24 17:04:29;;;;;;;;;;;;;;;;;;5073388;28;19961;-44
2023/06/24 17:06:56;;;;;;;;;;;;;;;;;;5085441;28;20432;-43
2023/06/24 17:09:22;;;;;;;;;;;;;;;;;;5079147;28;19916;-44
2023/06/24 17:11:48;;;;;;;;;;;;;;;;;;5082194;28;19931;-43
2023/06/24 17:14:14;;;;;;;;;;;;;;;;;;5083163;28;20369;-46
2023/06/24 17:16:40;;;;;;;;;;;;;;;;;;5083370;28;19922;-48
2023/06/24 17:19:06;;;;;;;;;;;;;;;;;;5085146;28;19912;-43
2023/06/24 17:21:32;;;;;;;;;;;;;;;;;;5083024;28;20109;-45
2023/06/24 17:23:59;;;;;;;;;;;;;;;;;;5085612;28;19966;-46
2023/06/24 17:26:25;;;;;;;;;;;;;;;;;;5083444;28;19917;-44
2023/06/24 17:28:51;;;;;;;;;;;;;;;;;;5083918;28;19969;-45
2023/06/24 17:31:18;;;;;;;;;;;;;;;;;;5083826;28;19916;-44
2023/06/24 17:33:44;;;;;;;;;;;;;;;;;;5083774;28;20242;-46
2023/06/24 17:36:10;;;;;;;;;;;;;;;;;;5082740;28;19916;-46
2023/06/24 17:38:37;;;;;;;;;;;;;;;;;;5084610;28;19991;-47
2023/06/24 17:41:02;;;;;;;;;;;;;;;;;;5084007;28;19923;-45
2023/06/24 17:43:28;;;;;;;;;;;;;;;;;;5083747;28;19912;-45
2023/06/24 17:45:54;;;;;;;;;;;;;;;;;;5083662;28;19919;-43
2023/06/24 17:48:20;;;;;;;;;;;;;;;;;;5081631;28;19916;-43
2023/06/24 17:50:46;;;;;;;;;;;;;;;;;;5082312;28;19919;-44
2023/06/24 17:53:12;;;;;;;;;;;;;;;;;;5080999;28;19912;-46
2023/06/24 17:55:39;;;;;;;;;;;;;;;;;;5081228;28;20025;-45
2023/06/24 17:58:05;;;;;;;;;;;;;;;;;;5081782;28;19913;-43
2023/06/24 18:00:39;;;;;;;;;;;;;;;;;;5082260;28;19916;-43
2023/06/24 18:03:05;;;;;;;;;;;;;;;;;;5070090;28;19995;-45
2023/06/24 18:05:31;;;;;;;;;;;;;;;;;;5077667;28;20050;-43
2023/06/24 18:07:58;;;;;;;;;;;;;;;;;;5081509;28;20403;-44
2023/06/24 18:10:25;;;;;;;;;;;;;;;;;;5078576;28;20439;-45
2023/06/24 18:12:51;;;;;;;;;;;;;;;;;;5079793;28;19920;-43
2023/06/24 18:15:17;;;;;;;;;;;;;;;;;;5077477;28;19923;-43
2023/06/24 18:17:43;;;;;;;;;;;;;;;;;;5082051;28;19916;-43
2023/06/24 18:20:09;;;;;;;;;;;;;;;;;;5079757;28;19916;-45
2023/06/24 18:22:35;;;;;;;;;;;;;;;;;;5079095;28;19912;-47
2023/06/24 18:25:01;;;;;;;;;;;;;;;;;;5082840;28;19916;-42
2023/06/24 18:27:27;;;;;;;;;;;;;;;;;;5081666;28;19912;-45
2023/06/24 18:29:53;;;;;;;;;;;;;;;;;;5079873;28;19922;-44
2023/06/24 18:32:19;;;;;;;;;;;;;;;;;;5080678;28;20002;-45
2023/06/24 18:34:45;;;;;;;;;;;;;;;;;;5082983;28;19958;-45
2023/06/24 18:37:10;;;;;;;;;;;;;;;;;;5080232;28;20015;-44
2023/06/24 18:39:37;;;;;;;;;;;;;;;;;;5081008;28;19917;-47
2023/06/24 18:42:02;;;;;;;;;;;;;;;;;;5084881;28;20371;-43
2023/06/24 18:44:28;;;;;;;;;;;;;;;;;;5084295;28;19920;-44
2023/06/24 18:46:54;;;;;;;;;;;;;;;;;;5083702;28;19912;-46
2023/06/24 18:49:20;;;;;;;;;;;;;;;;;;5082493;28;19938;-43
2023/06/24 18:51:46;;;;;;;;;;;;;;;;;;5082992;28;19972;-43
2023/06/24 18:54:12;;;;;;;;;;;;;;;;;;5083843;28;20028;-42
2023/06/24 18:56:38;;;;;;;;;;;;;;;;;;5079721;28;20027;-45
2023/06/24 18:59:04;;;;;;;;;;;;;;;;;;5073193;28;19958;-44
2023/06/24 19:01:30;;;;;;;;;;;;;;;;;;5078953;28;20315;-43
2023/06/24 19:03:56;;;;;;;;;;;;;;;;;;5086072;28;19916;-45
2023/06/24 19:06:22;;;;;;;;;;;;;;;;;;5084890;28;19957;-42
2023/06/24 19:08:52;;;;;;;;;;;;;;;;;;5085846;28;19912;-45
2023/06/24 19:11:18;;;;;;;;;;;;;;;;;;5082428;28;19986;-47
2023/06/24 19:13:44;;;;;;;;;;;;;;;;;;5089345;28;20365;-46
2023/06/24 19:16:10;;;;;;;;;;;;;;;;;;5088528;28;19912;-43
2023/06/24 19:18:36;;;;;;;;;;;;;;;;;;5088091;28;19916;-45
2023/06/24 19:21:02;;;;;;;;;;;;;;;;;;5086942;28;19956;-42
2023/06/24 19:23:28;;;;;;;;;;;;;;;;;;5086567;28;19912;-43
2023/06/24 19:25:53;;;;;;;;;;;;;;;;;;5089079;28;19974;-44
2023/06/24 19:28:19;;;;;;;;;;;;;;;;;;5088043;28;20003;-44
2023/06/24 19:30:46;;;;;;;;;;;;;;;;;;5087503;28;19912;-41
2023/06/24 19:33:11;;;;;;;;;;;;;;;;;;5079206;28;19919;-43
2023/06/24 19:35:38;;;;;;;;;;;;;;;;;;5085548;28;20011;-45
2023/06/24 19:38:04;;;;;;;;;;;;;;;;;;5086884;28;20368;-44
2023/06/24 19:40:30;;;;;;;;;;;;;;;;;;5085682;28;19951;-42
2023/06/24 19:42:56;;;;;;;;;;;;;;;;;;5088684;28;19909;-44
2023/06/24 19:45:22;;;;;;;;;;;;;;;;;;5087820;28;20007;-46
2023/06/24 19:47:48;;;;;;;;;;;;;;;;;;5087841;28;19927;-44
2023/06/24 19:50:14;;;;;;;;;;;;;;;;;;5084431;28;19912;-42
2023/06/24 19:52:40;;;;;;;;;;;;;;;;;;5081111;28;19958;-43
2023/06/24 19:55:06;;;;;;;;;;;;;;;;;;5085759;28;20355;-42
2023/06/24 19:57:38;;;;;;;;;;;;;;;;;;5084080;28;19912;-43
2023/06/24 20:00:04;;;;;;;;;;;;;;;;;;5083716;28;19939;-44
2023/06/24 20:02:30;;;;;;;;;;;;;;;;;;5083113;28;19916;-47
2023/06/24 20:04:57;;;;;;;;;;;;;;;;;;5084016;28;19912;-42
2023/06/24 20:07:24;;;;;;;;;;;;;;;;;;5085493;28;19915;-42
2023/06/24 20:09:49;;;;;;;;;;;;;;;;;;5082575;28;19966;-42
2023/06/24 20:12:15;;;;;;;;;;;;;;;;;;5083464;28;19951;-42
2023/06/24 20:14:41;;;;;;;;;;;;;;;;;;5085029;28;20465;-43
2023/06/24 20:17:08;;;;;;;;;;;;;;;;;;5083341;28;19920;-41
2023/06/24 20:19:34;;;;;;;;;;;;;;;;;;5080156;28;19922;-42
2023/06/24 20:22:00;;;;;;;;;;;;;;;;;;5077002;28;20560;-42
2023/06/24 20:24:26;;;;;;;;;;;;;;;;;;5084911;28;19915;-42
2023/06/24 20:26:52;;;;;;;;;;;;;;;;;;5085316;28;19920;-43
2023/06/24 20:29:18;;;;;;;;;;;;;;;;;;5085595;28;20036;-43
2023/06/24 20:31:43;;;;;;;;;;;;;;;;;;5085210;28;20404;-45
2023/06/24 20:34:09;;;;;;;;;;;;;;;;;;5085880;28;19912;-42
2023/06/24 20:36:35;;;;;;;;;;;;;;;;;;5082547;28;19927;-41
2023/06/24 20:39:02;;;;;;;;;;;;;;;;;;5086340;28;19912;-42
2023/06/24 20:41:30;;;;;;;;;;;;;;;;;;5083931;28;19916;-41
2023/06/24 20:43:56;;;;;;;;;;;;;;;;;;5085818;28;19915;-42
2023/06/24 20:46:22;;;;;;;;;;;;;;;;;;5083663;28;19916;-41
2023/06/24 20:48:48;;;;;;;;;;;;;;;;;;5082941;28;20312;-41
2023/06/24 20:51:14;;;;;;;;;;;;;;;;;;5082619;28;19916;-43
2023/06/24 20:53:40;;;;;;;;;;;;;;;;;;5085393;28;19912;-42
2023/06/24 20:56:07;;;;;;;;;;;;;;;;;;5085306;28;20006;-42
2023/06/24 20:58:34;;;;;;;;;;;;;;;;;;5084216;28;20003;-41
2023/06/24 21:01:00;;;;;;;;;;;;;;;;;;5082698;28;19923;-42
2023/06/24 21:03:26;;;;;;;;;;;;;;;;;;5084171;28;19912;-41
2023/06/24 21:05:52;;;;;;;;;;;;;;;;;;5100512;28;19911;-43
2023/06/24 21:08:17;;;;;;;;;;;;;;;;;;5098750;28;20443;-41
2023/06/24 21:10:43;;;;;;;;;;;;;;;;;;5084960;28;19912;-41
2023/06/24 21:13:09;;;;;;;;;;;;;;;;;;5082613;28;20360;-41
2023/06/24 21:15:35;;;;;;;;;;;;;;;;;;5082964;28;19938;-42
2023/06/24 21:18:01;;;;;;;;;;;;;;;;;;5073796;28;19912;-41
2023/06/24 21:20:27;;;;;;;;;;;;;;;;;;5085012;28;19912;-42
2023/06/24 21:22:53;;;;;;;;;;;;;;;;;;5083881;28;19925;-42
2023/06/24 21:25:19;;;;;;;;;;;;;;;;;;5084211;28;19935;-43
2023/06/24 21:27:45;;;;;;;;;;;;;;;;;;5084762;28;20006;-42
2023/06/24 21:30:11;;;;;;;;;;;;;;;;;;5084936;28;19999;-41
2023/06/24 21:32:37;;;;;;;;;;;;;;;;;;5083976;28;20373;-42
2023/06/24 21:35:02;;;;;;;;;;;;;;;;;;5081069;28;19916;-43
2023/06/24 21:37:28;;;;;;;;;;;;;;;;;;5091114;28;20005;-44
2023/06/24 21:39:54;;;;;;;;;;;;;;;;;;5084687;28;19918;-43
2023/06/24 21:42:20;;;;;;;;;;;;;;;;;;5083688;28;20012;-42
2023/06/24 21:44:47;;;;;;;;;;;;;;;;;;5083156;28;19908;-44